Latest Coastal Weather Observations for Rowley Shoals

IDW60701

Issued at 1:35 am WST Friday 25 July 2014 (issued every 10 minutes, with the page automatically refreshed every 10 minutes)

About coastal observations | Map of coastal stations | Coastal observations for WA | Marine services | Other Formats
Station Details ID: 200713 Name: ROWLEY SHOALS Lat: -17.52 Lon: 118.95 Height: 0.0 m
Data from the previous 72 hours. | See also: Recent months for locations in Western Australia
Date/Time
WST
Temp

°C
Wind Pressure Rain
since 9am
mm
Weather Cloud Vis
km
Sea
Height
m
Swell
Dir
 
Speed
knots
Gust
knots
hPa Trend Height
m
Period
s
Dir
25/01:30am - SE 17 21 1015.9 - - - - - - - - -
25/01:00am - SE 19 - 1016.1 - - - - - - - - -
25/12:00am - SE 19 - 1016.5 - - - - - - - - -
 
Date/Time
WST
Temp

°C
Wind Pressure Rain
since 9am
mm
Weather Cloud Vis
km
Sea
Height
m
Swell
Dir
 
Speed
knots
Gust
knots
hPa Trend Height
m
Period
s
Dir
24/11:00pm - SSE 17 - 1016.8 - - - - - - - - -
24/10:00pm - SE 16 21 1017.0 - - - - - - - - -
24/09:30pm - SSE 16 19 1016.9 - - - - - - - - -
24/09:00pm - SSE 15 17 1016.8 - - - - - - - - -
24/08:30pm - SSE 14 16 1016.5 - - - - - - - - -
24/08:00pm - SSE 13 17 1016.5 - - - - - - - - -
24/07:30pm - SSE 13 16 1016.2 - - - - - - - - -
24/07:00pm - SSE 14 17 1015.9 - - - - - - - - -
24/06:30pm - SSE 16 19 1015.2 - - - - - - - - -
24/06:00pm - SSE 18 21 1015.2 - - - - - - - - -
24/05:30pm - SE 17 21 1015.2 - - - - - - - - -
24/05:00pm - SE 18 22 1015.2 - - - - - - - - -
24/04:30pm - SSE 18 21 1015.0 - - - - - - - - -
24/04:00pm - SE 17 20 1014.9 - - - - - - - - -
24/03:30pm - SE 16 19 1015.0 - - - - - - - - -
24/03:00pm - SE 15 18 1015.1 - - - - - - - - -
24/02:30pm - SE 15 17 1015.6 - - - - - - - - -
24/02:00pm - SE 15 18 1015.6 - - - - - - - - -
24/01:30pm - SE 16 19 1015.6 - - - - - - - - -
24/01:00pm - ESE 16 19 1016.0 - - - - - - - - -
24/12:30pm - SE 17 24 1016.2 - - - - - - - - -
24/12:00pm - SE 16 21 1016.7 - - - - - - - - -
24/11:30am - SE 17 21 1017.2 - - - - - - - - -
24/11:00am - SE 16 22 1017.8 - - - - - - - - -
24/10:30am - SE 18 23 1017.6 - - - - - - - - -
24/10:00am - SE 19 23 1017.6 - - - - - - - - -
24/09:30am - SE 19 22 1017.7 - - - - - - - - -
24/09:00am - SE 18 23 1017.6 - - - - - - - - -
24/08:30am - SE 19 22 1017.0 - - - - - - - - -
24/08:00am - SE 17 21 1016.8 - - - - - - - - -
24/07:30am - SSE 16 19 1016.1 - - - - - - - - -
24/07:00am - SSE 16 23 1015.8 - - - - - - - - -
24/06:30am - SSE 16 20 1015.7 - - - - - - - - -
24/06:00am - SE 17 20 1015.4 - - - - - - - - -
24/05:30am - SSE 18 20 1015.3 - - - - - - - - -
24/05:00am - SSE 17 21 1015.2 - - - - - - - - -
24/04:30am - SSE 17 19 1014.9 - - - - - - - - -
24/04:00am - SSE 16 18 1014.8 - - - - - - - - -
24/03:30am - SSE 14 18 1014.9 - - - - - - - - -
24/03:00am - SSE 14 16 1015.0 - - - - - - - - -
24/02:30am - SSE 12 15 1015.2 - - - - - - - - -
24/02:00am - SSE 11 14 1015.4 - - - - - - - - -
24/01:30am - SSE 11 14 1015.5 - - - - - - - - -
24/01:00am - SE 11 13 1015.5 - - - - - - - - -
24/12:30am - SSE 11 13 1015.8 - - - - - - - - -
24/12:00am - SSE 12 15 1015.7 - - - - - - - - -
 
Date/Time
WST
Temp

°C
Wind Pressure Rain
since 9am
mm
Weather Cloud Vis
km
Sea
Height
m
Swell
Dir
 
Speed
knots
Gust
knots
hPa Trend Height
m
Period
s
Dir
23/11:30pm - SSE 13 16 1015.6 - - - - - - - - -
23/11:00pm - SSE 14 16 1015.7 - - - - - - - - -
23/10:30pm - SSE 13 15 1015.8 - - - - - - - - -
23/10:00pm - SSE 13 15 1015.9 - - - - - - - - -
23/09:30pm - SE 12 15 1015.8 - - - - - - - - -
23/09:00pm - SE 13 16 1015.8 - - - - - - - - -
23/08:30pm - SE 14 16 1015.4 - - - - - - - - -
23/08:00pm - SE 14 17 1015.3 - - - - - - - - -
23/07:30pm - SE 14 16 1015.0 - - - - - - - - -
23/07:00pm - SE 14 17 1014.7 - - - - - - - - -
23/06:30pm - SE 16 18 1014.1 - - - - - - - - -
23/06:00pm - SE 16 19 1014.1 - - - - - - - - -
23/05:30pm - SE 17 19 1013.8 - - - - - - - - -
23/05:00pm - SE 17 20 1013.7 - - - - - - - - -
23/04:30pm - SE 18 20 1013.5 - - - - - - - - -
23/04:00pm - SE 14 17 1013.6 - - - - - - - - -
23/03:30pm - SE 12 15 1013.7 - - - - - - - - -
23/03:00pm - SE 13 15 1013.7 - - - - - - - - -
23/02:30pm - SSE 14 15 1013.6 - - - - - - - - -
23/02:00pm - SE 14 16 1013.7 - - - - - - - - -
23/01:30pm - SE 10 13 1014.2 - - - - - - - - -
23/01:00pm - SE 12 13 1014.2 - - - - - - - - -
23/12:30pm - SE 9 11 1014.6 - - - - - - - - -
23/12:00pm - SE 9 10 1014.9 - - - - - - - - -
23/11:30am - SSE 8 9 1015.6 - - - - - - - - -
23/11:00am - SE 8 10 1015.9 - - - - - - - - -
23/10:30am - SE 8 9 1016.4 - - - - - - - - -
23/10:00am - SE 8 9 1016.6 - - - - - - - - -
23/09:30am - ESE 9 10 1016.9 - - - - - - - - -
23/09:00am - SE 8 9 1017.0 - - - - - - - - -
23/08:30am - SE 8 11 1016.8 - - - - - - - - -
23/08:00am - SE 8 11 1016.6 - - - - - - - - -
23/07:30am - SSE 7 8 1016.3 - - - - - - - - -
23/07:00am - SE 7 9 1016.0 - - - - - - - - -
23/06:30am - SSE 8 10 1015.6 - - - - - - - - -
23/06:00am - SSE 8 9 1015.3 - - - - - - - - -
23/05:30am - SSE 7 11 1015.1 - - - - - - - - -
23/05:00am - SSE 8 9 1015.0 - - - - - - - - -
23/04:30am - SSE 7 10 1014.7 - - - - - - - - -
23/04:00am - SSE 8 9 1014.6 - - - - - - - - -
23/03:30am - SSE 7 9 1014.6 - - - - - - - - -
23/03:00am - S 6 9 1014.6 - - - - - - - - -
23/02:30am - S 7 9 1014.7 - - - - - - - - -
23/02:00am - S 7 8 1014.9 - - - - - - - - -
23/01:30am - S 7 10 1015.0 - - - - - - - - -
23/01:00am - S 6 10 1015.1 - - - - - - - - -
23/12:30am - S 7 9 1015.2 - - - - - - - - -
23/12:00am - S 7 10 1015.3 - - - - - - - - -
 
Date/Time
WST
Temp

°C
Wind Pressure Rain
since 9am
mm
Weather Cloud Vis
km
Sea
Height
m
Swell
Dir
 
Speed
knots
Gust
knots
hPa Trend Height
m
Period
s
Dir
22/11:30pm - S 10 12 1015.4 - - - - - - - - -
22/11:00pm - S 11 12 1015.4 - - - - - - - - -
22/10:30pm - S 11 15 1015.6 - - - - - - - - -
22/10:00pm - S 11 13 1015.7 - - - - - - - - -
22/09:30pm - S 11 13 1015.7 - - - - - - - - -
22/09:00pm - SSW 11 14 1015.7 - - - - - - - - -
22/08:30pm - SSW 11 14 1015.7 - - - - - - - - -
22/08:00pm - S 10 12 1015.6 - - - - - - - - -
22/07:30pm - S 10 12 1015.4 - - - - - - - - -
22/07:00pm - S 11 14 1015.1 - - - - - - - - -
22/06:30pm - SSW 12 15 1014.7 - - - - - - - - -
22/06:00pm - SSW 12 14 1014.4 - - - - - - - - -
22/05:30pm - SSW 11 14 1014.1 - - - - - - - - -
22/05:00pm - S 11 15 1013.9 - - - - - - - - -
22/04:30pm - SSW 12 14 1013.9 - - - - - - - - -
22/04:00pm - S 12 16 1013.9 - - - - - - - - -
22/03:30pm - SSW 14 16 1013.8 - - - - - - - - -
22/03:00pm - SSW 14 16 1013.9 - - - - - - - - -
22/02:30pm - SSW 14 16 1014.0 - - - - - - - - -
22/02:00pm - SSW 13 15 1014.2 - - - - - - - - -
22/01:30pm - SSW 12 15 1014.7 - - - - - - - - -
22/01:00pm - SSW 12 14 1014.9 - - - - - - - - -
22/12:30pm - SSW 13 16 1015.3 - - - - - - - - -
22/12:00pm - SSW 14 16 1015.5 - - - - - - - - -
22/11:30am - S 14 17 1015.8 - - - - - - - - -
22/11:00am - SSW 16 19 1016.1 - - - - - - - - -
22/10:30am - SSW 18 20 1016.3 - - - - - - - - -
22/10:00am - SSW 19 22 1016.4 - - - - - - - - -
22/09:30am - SSW 20 23 1016.5 - - - - - - - - -
22/09:00am - SSW 21 25 1016.6 - - - - - - - - -
22/08:30am - SSW 22 25 1016.4 - - - - - - - - -
22/08:00am - SSW 23 25 1016.0 - - - - - - - - -
22/07:30am - SSW 21 25 1015.5 - - - - - - - - -
22/07:00am - SSW 18 19 1015.4 - - - - - - - - -
22/06:30am - SW 17 20 1015.2 - - - - - - - - -
22/06:00am - W 11 12 1015.0 - - - - - - - - -
22/05:30am - WNW 9 11 1014.7 - - - - - - - - -
22/05:00am - WNW 9 9 1014.5 - - - - - - - - -
22/04:30am - WNW 8 9 1014.4 - - - - - - - - -
22/04:00am - WNW 8 10 1014.5 - - - - - - - - -
22/03:30am - NW 7 9 1014.5 - - - - - - - - -
22/03:00am - NW 8 9 1014.5 - - - - - - - - -
22/02:30am - NW 7 7 1014.6 - - - - - - - - -
22/02:00am - NW 5 6 1014.7 - - - - - - - - -

Other Formats:

Comma delimited format used in spreadsheet applications
http://www.bom.gov.au/fwo/IDW60701/IDW60701.94207.axf

JavaScript Object Notation format (JSON) in row-major order
http://www.bom.gov.au/fwo/IDW60701/IDW60701.94207.json